createdAt,value
2022-08-23T00:01:21.223Z,21.46
2022-08-23T00:03:53.924Z,21.38
2022-08-23T00:06:22.721Z,21.32
2022-08-23T00:08:53.336Z,21.28
2022-08-23T00:11:30.867Z,21.13
2022-08-23T00:14:00.684Z,21.09
2022-08-23T00:16:29.316Z,21.07
2022-08-23T00:18:57.377Z,21.08
2022-08-23T00:21:25.328Z,21.14
2022-08-23T00:23:54.687Z,21.18
2022-08-23T00:26:23.286Z,21.19
2022-08-23T00:28:51.487Z,21.22
2022-08-23T00:31:21.028Z,21.19
2022-08-23T00:33:49.013Z,21.14
2022-08-23T00:36:17.527Z,21.09
2022-08-23T00:38:45.642Z,21.04
2022-08-23T00:41:15.029Z,21.02
2022-08-23T00:44:00.927Z,21.00
2022-08-23T00:47:00.214Z,21.00
2022-08-23T00:49:29.581Z,20.96
2022-08-23T00:52:02.796Z,20.98
2022-08-23T00:54:32.460Z,20.97
2022-08-23T00:57:06.615Z,20.86
2022-08-23T00:59:35.036Z,20.84
2022-08-23T01:02:04.277Z,20.88
2022-08-23T01:04:35.463Z,20.80
2022-08-23T01:07:08.681Z,20.77
2022-08-23T01:09:39.044Z,20.80
2022-08-23T01:12:15.171Z,20.79
2022-08-23T01:14:49.074Z,20.67
2022-08-23T01:17:21.407Z,20.60
2022-08-23T01:19:53.536Z,20.56
2022-08-23T01:22:28.412Z,20.55
2022-08-23T01:25:07.203Z,20.55
2022-08-23T01:27:43.156Z,20.60
2022-08-23T01:30:17.064Z,20.64
2022-08-23T01:32:50.045Z,20.63
2022-08-23T01:37:52.957Z,20.60
2022-08-23T01:40:23.182Z,20.52
2022-08-23T01:42:51.325Z,20.56
2022-08-23T01:45:19.618Z,20.54
2022-08-23T01:47:47.687Z,20.50
2022-08-23T01:50:16.388Z,20.45
2022-08-23T01:52:46.697Z,20.41
2022-08-23T01:55:17.686Z,20.35
2022-08-23T01:57:50.213Z,20.30
2022-08-23T02:00:21.926Z,20.24
2022-08-23T02:02:50.043Z,20.25
2022-08-23T02:05:19.241Z,20.23
2022-08-23T02:07:48.831Z,20.24
2022-08-23T02:10:19.255Z,20.23
2022-08-23T02:12:48.873Z,20.21
2022-08-23T02:15:18.738Z,20.19
2022-08-23T02:17:48.616Z,20.15
2022-08-23T02:20:17.063Z,20.13
2022-08-23T02:22:45.059Z,20.08
2022-08-23T02:25:13.058Z,20.03
2022-08-23T02:27:44.118Z,20.02
2022-08-23T02:30:15.570Z,20.06
2022-08-23T02:32:44.109Z,20.01
2022-08-23T02:35:13.374Z,20.03
2022-08-23T02:37:41.355Z,20.04
2022-08-23T02:40:10.871Z,20.04
2022-08-23T02:42:39.739Z,20.01
2022-08-23T02:45:09.829Z,20.01
2022-08-23T02:47:46.812Z,20.04
2022-08-23T02:50:26.562Z,20.01
2022-08-23T02:52:54.984Z,20.03
2022-08-23T02:55:23.748Z,20.00
2022-08-23T02:57:51.710Z,19.94
2022-08-23T03:00:20.639Z,19.93
2022-08-23T03:02:52.827Z,19.93
2022-08-23T03:05:21.169Z,19.92
2022-08-23T03:07:49.213Z,19.90
2022-08-23T03:10:17.532Z,19.90
2022-08-23T03:12:54.176Z,19.86
2022-08-23T03:15:22.210Z,19.82
2022-08-23T03:17:50.408Z,19.76
2022-08-23T03:20:20.700Z,19.74
2022-08-23T03:22:54.698Z,19.68
2022-08-23T03:25:25.531Z,19.66
2022-08-23T03:28:25.915Z,19.73
2022-08-23T03:30:54.677Z,19.77
2022-08-23T03:33:23.750Z,19.72
2022-08-23T03:35:53.345Z,19.72
2022-08-23T03:38:21.344Z,19.70
2022-08-23T03:40:52.527Z,19.67
2022-08-23T03:43:20.899Z,19.55
2022-08-23T03:45:49.356Z,19.52
2022-08-23T03:48:17.758Z,19.48
2022-08-23T03:50:46.771Z,19.43
2022-08-23T03:53:17.369Z,19.40
2022-08-23T03:55:48.208Z,19.36
2022-08-23T03:58:19.327Z,19.37
2022-08-23T04:00:47.399Z,19.42
2022-08-23T04:03:15.705Z,19.39
2022-08-23T04:06:14.161Z,19.35
2022-08-23T04:08:44.066Z,19.36
2022-08-23T04:11:14.534Z,19.41
2022-08-23T04:13:53.322Z,19.28
2022-08-23T04:16:21.550Z,19.22
2022-08-23T04:18:50.735Z,19.19
2022-08-23T04:21:24.702Z,19.22
2022-08-23T04:23:54.234Z,19.18
2022-08-23T04:26:23.643Z,19.17
2022-08-23T04:28:56.305Z,19.18
2022-08-23T04:31:26.206Z,19.24
2022-08-23T04:33:55.650Z,19.20
2022-08-23T04:36:25.311Z,19.22
2022-08-23T04:38:54.867Z,19.23
2022-08-23T04:41:40.313Z,19.25
2022-08-23T04:44:08.296Z,19.21
2022-08-23T04:46:36.655Z,19.21
2022-08-23T04:49:04.964Z,19.13
2022-08-23T04:51:33.373Z,19.11
2022-08-23T04:54:02.837Z,19.09
2022-08-23T04:56:37.378Z,19.06
2022-08-23T04:59:06.053Z,19.09
2022-08-23T05:01:35.001Z,19.02
2022-08-23T05:04:04.013Z,19.03
2022-08-23T05:06:33.281Z,19.03
2022-08-23T05:09:02.785Z,19.08
2022-08-23T05:11:33.689Z,19.11
2022-08-23T05:14:01.886Z,19.13
2022-08-23T05:16:30.664Z,19.10
2022-08-23T05:19:04.087Z,19.08
2022-08-23T05:21:34.755Z,19.05
2022-08-23T05:24:05.324Z,19.07
2022-08-23T05:26:33.804Z,19.08
2022-08-23T05:29:01.948Z,19.08
2022-08-23T05:31:36.404Z,19.10
2022-08-23T05:34:05.199Z,19.10
2022-08-23T05:37:02.405Z,18.99
2022-08-23T05:39:41.241Z,18.97
2022-08-23T05:42:15.010Z,18.97
2022-08-23T05:44:45.485Z,18.92
2022-08-23T05:47:16.425Z,18.95
2022-08-23T05:49:52.955Z,18.97
2022-08-23T05:52:21.715Z,19.03
2022-08-23T05:54:51.117Z,19.07
2022-08-23T05:57:38.778Z,19.05
2022-08-23T06:00:11.746Z,19.13
2022-08-23T06:02:46.919Z,19.15
2022-08-23T06:05:15.426Z,19.21
2022-08-23T06:07:45.496Z,19.22
2022-08-23T06:10:16.559Z,19.29
2022-08-23T06:12:50.162Z,19.38
2022-08-23T06:15:18.337Z,19.42
2022-08-23T06:17:47.702Z,19.41
2022-08-23T06:20:16.625Z,19.44
2022-08-23T06:23:07.963Z,19.48
2022-08-23T06:25:39.850Z,19.54
2022-08-23T06:28:12.048Z,19.60
2022-08-23T06:30:43.511Z,19.67
2022-08-23T06:33:44.318Z,19.69
2022-08-23T06:36:37.384Z,19.81
2022-08-23T06:39:22.574Z,19.87
2022-08-23T06:42:37.434Z,19.89
2022-08-23T06:45:06.918Z,19.97
2022-08-23T06:47:48.172Z,20.03
2022-08-23T06:50:16.183Z,20.10
2022-08-23T06:53:06.998Z,20.21
2022-08-23T06:55:44.068Z,20.31
2022-08-23T06:58:42.201Z,20.43
2022-08-23T07:01:48.710Z,20.44
2022-08-23T07:04:25.713Z,20.50
2022-08-23T07:07:11.635Z,20.63
2022-08-23T07:09:41.656Z,20.76
2022-08-23T07:12:11.012Z,20.93
2022-08-23T07:14:44.190Z,21.01
2022-08-23T07:17:14.480Z,20.98
2022-08-23T07:19:44.124Z,20.94
2022-08-23T07:22:12.640Z,21.07
2022-08-23T07:24:42.956Z,21.09
2022-08-23T07:27:12.448Z,21.11
2022-08-23T07:30:09.788Z,21.08
2022-08-23T07:32:40.656Z,21.17
2022-08-23T07:35:29.024Z,21.33
2022-08-23T07:38:00.114Z,21.33
2022-08-23T07:40:38.777Z,21.38
2022-08-23T07:43:08.965Z,21.29
2022-08-23T07:45:40.687Z,21.37
2022-08-23T07:48:12.004Z,21.42
2022-08-23T07:51:01.291Z,21.46
2022-08-23T07:53:37.727Z,21.47
2022-08-23T07:56:08.625Z,21.49
2022-08-23T07:59:02.830Z,21.43
2022-08-23T08:01:43.670Z,21.56
2022-08-23T08:04:12.568Z,21.65
2022-08-23T08:06:59.796Z,21.56
2022-08-23T08:09:35.545Z,21.60
2022-08-23T08:12:03.815Z,21.66
2022-08-23T08:14:32.911Z,21.92
2022-08-23T08:17:06.830Z,22.05
2022-08-23T08:19:55.083Z,21.99
2022-08-23T08:22:28.642Z,21.99
2022-08-23T08:25:09.081Z,22.04
2022-08-23T08:27:38.436Z,22.06
2022-08-23T08:30:09.146Z,22.05
2022-08-23T08:32:47.065Z,22.07
2022-08-23T08:35:16.443Z,22.14
2022-08-23T08:37:44.842Z,22.22
2022-08-23T08:40:13.208Z,22.22
2022-08-23T08:42:54.888Z,22.27
2022-08-23T08:45:26.292Z,22.31
2022-08-23T08:48:03.867Z,22.32
2022-08-23T08:50:43.779Z,22.49
2022-08-23T08:53:16.785Z,22.64
2022-08-23T08:56:09.306Z,22.65
2022-08-23T08:58:47.112Z,22.74
2022-08-23T09:01:17.355Z,22.81
2022-08-23T09:03:48.331Z,22.80
2022-08-23T09:06:25.692Z,22.78
2022-08-23T09:09:09.918Z,22.90
2022-08-23T09:11:52.720Z,23.04
2022-08-23T09:14:45.923Z,23.07
2022-08-23T09:17:21.342Z,23.20
2022-08-23T09:19:57.062Z,23.28
2022-08-23T09:22:33.787Z,23.38
2022-08-23T09:25:02.028Z,23.45
2022-08-23T09:27:40.068Z,23.56
2022-08-23T09:30:10.112Z,23.61
2022-08-23T09:32:41.216Z,23.62
2022-08-23T09:35:17.332Z,23.63
2022-08-23T09:37:58.999Z,23.59
2022-08-23T09:40:33.902Z,23.58
2022-08-23T09:43:13.952Z,23.72
2022-08-23T09:45:53.930Z,23.72
2022-08-23T09:48:39.048Z,23.76
2022-08-23T09:51:19.230Z,23.95
2022-08-23T09:53:51.368Z,24.08
2022-08-23T09:56:26.413Z,24.16
2022-08-23T09:58:55.568Z,24.15
2022-08-23T10:01:39.292Z,24.21
2022-08-23T10:04:16.141Z,24.38
2022-08-23T10:06:47.104Z,24.46
2022-08-23T10:09:26.500Z,24.44
2022-08-23T10:11:56.529Z,24.47
2022-08-23T10:14:30.059Z,24.55
2022-08-23T10:17:09.045Z,24.68
2022-08-23T10:19:47.743Z,24.73
2022-08-23T10:22:21.113Z,24.66
2022-08-23T10:25:19.527Z,24.65
2022-08-23T10:28:13.902Z,24.74
2022-08-23T10:30:50.815Z,24.77
2022-08-23T10:33:25.618Z,24.87
2022-08-23T10:36:03.738Z,24.86
2022-08-23T10:38:43.874Z,24.99
2022-08-23T10:41:24.847Z,25.06
2022-08-23T10:44:07.735Z,25.11
2022-08-23T10:46:43.814Z,25.18
2022-08-23T10:49:14.186Z,25.09
2022-08-23T10:51:46.157Z,25.08
2022-08-23T10:54:24.163Z,25.10
2022-08-23T10:56:59.032Z,25.23
2022-08-23T10:59:28.507Z,25.25
2022-08-23T11:02:08.184Z,25.33
2022-08-23T11:04:47.739Z,25.34
2022-08-23T11:07:29.239Z,25.41
2022-08-23T11:10:16.693Z,25.40
2022-08-23T11:12:58.444Z,25.40
2022-08-23T11:15:34.445Z,25.48
2022-08-23T11:18:08.665Z,25.54
2022-08-23T11:21:34.093Z,25.64
2022-08-23T11:24:50.315Z,25.88
2022-08-23T11:27:40.453Z,25.91
2022-08-23T11:30:44.987Z,25.95
2022-08-23T11:33:24.353Z,25.87
2022-08-23T11:35:56.508Z,25.93
2022-08-23T11:39:03.119Z,26.00
2022-08-23T11:41:34.085Z,26.10
2022-08-23T11:44:28.367Z,26.08
2022-08-23T11:47:01.241Z,26.19
2022-08-23T11:50:04.522Z,26.20
2022-08-23T11:53:03.100Z,26.21
2022-08-23T11:55:55.554Z,26.15
2022-08-23T11:58:27.601Z,26.18
2022-08-23T12:01:06.784Z,26.29
2022-08-23T12:03:44.640Z,26.19
2022-08-23T12:06:43.011Z,26.20
2022-08-23T12:09:53.670Z,26.25
2022-08-23T12:12:27.746Z,26.41
2022-08-23T12:14:58.077Z,26.49
2022-08-23T12:18:03.379Z,26.51
2022-08-23T12:20:34.533Z,26.67
2022-08-23T12:23:15.215Z,26.80
2022-08-23T12:25:43.968Z,26.85
2022-08-23T12:28:31.449Z,26.92
2022-08-23T12:31:07.811Z,27.03
2022-08-23T12:33:52.287Z,26.99
2022-08-23T12:36:30.131Z,27.03
2022-08-23T12:39:04.914Z,27.10
2022-08-23T12:41:37.092Z,27.02
2022-08-23T12:44:08.350Z,26.98
2022-08-23T12:46:42.516Z,27.04
2022-08-23T12:49:22.982Z,27.07
2022-08-23T12:51:56.643Z,27.11
2022-08-23T12:54:34.572Z,27.18
2022-08-23T12:57:10.345Z,27.06
2022-08-23T12:59:47.366Z,27.04
2022-08-23T13:02:21.440Z,27.12
2022-08-23T13:04:49.438Z,27.17
2022-08-23T13:07:23.101Z,27.21
2022-08-23T13:09:53.655Z,27.13
2022-08-23T13:12:24.272Z,27.07
2022-08-23T13:14:54.500Z,27.01
2022-08-23T13:17:32.993Z,27.07
2022-08-23T13:20:23.777Z,27.10
2022-08-23T13:23:02.904Z,27.36
2022-08-23T13:25:34.831Z,27.58
2022-08-23T13:28:05.975Z,27.68
2022-08-23T13:30:36.532Z,27.68
2022-08-23T13:33:22.911Z,27.66
2022-08-23T13:35:53.820Z,27.80
2022-08-23T13:38:27.055Z,27.82
2022-08-23T13:41:01.981Z,27.83
2022-08-23T13:43:34.896Z,28.03
2022-08-23T13:46:15.801Z,28.06
2022-08-23T13:48:52.081Z,28.02
2022-08-23T13:51:29.931Z,27.97
2022-08-23T13:54:01.338Z,28.14
2022-08-23T13:56:31.288Z,28.42
2022-08-23T13:59:02.594Z,28.59
2022-08-23T14:01:30.978Z,28.51
2022-08-23T14:03:59.255Z,28.55
2022-08-23T14:06:27.224Z,28.62
2022-08-23T14:08:55.238Z,28.72
2022-08-23T14:11:24.554Z,28.92
2022-08-23T14:13:53.141Z,28.97
2022-08-23T14:16:34.355Z,28.90
2022-08-23T14:20:31.282Z,28.85
2022-08-23T14:21:53.338Z,28.83
2022-08-23T14:24:22.203Z,28.51
2022-08-23T14:26:52.645Z,28.44
2022-08-23T14:29:22.611Z,28.45
2022-08-23T14:31:51.231Z,28.46
2022-08-23T14:34:19.269Z,28.56
2022-08-23T14:39:35.425Z,29.06
2022-08-23T14:42:05.612Z,29.24
2022-08-23T14:44:36.224Z,29.30
2022-08-23T14:47:05.774Z,29.47
2022-08-23T14:49:34.222Z,29.53
2022-08-23T14:52:02.273Z,29.68
2022-08-23T14:54:30.647Z,29.77
2022-08-23T14:56:58.876Z,29.88
2022-08-23T14:59:28.361Z,29.95
2022-08-23T15:01:56.784Z,29.94
2022-08-23T15:04:25.879Z,29.97
2022-08-23T15:07:19.642Z,29.96
2022-08-23T15:09:48.726Z,30.14
2022-08-23T15:15:12.107Z,29.89
2022-08-23T15:17:47.900Z,29.94
2022-08-23T15:20:16.546Z,29.94
2022-08-23T15:22:45.222Z,29.88
2022-08-23T15:25:24.887Z,30.09
2022-08-23T15:27:53.322Z,30.28
2022-08-23T15:30:24.666Z,30.17
2022-08-23T15:32:56.540Z,30.23
2022-08-23T15:35:25.754Z,30.02
2022-08-23T15:37:54.600Z,30.06
2022-08-23T15:40:23.555Z,30.12
2022-08-23T15:42:51.658Z,30.17
2022-08-23T15:45:19.618Z,30.19
2022-08-23T15:47:52.725Z,30.25
2022-08-23T15:50:24.715Z,30.15
2022-08-23T15:52:53.219Z,30.21
2022-08-23T15:55:21.893Z,30.23
2022-08-23T15:57:53.787Z,29.99
2022-08-23T16:00:24.221Z,30.02
2022-08-23T16:03:27.847Z,30.19
2022-08-23T16:05:45.156Z,29.60
2022-08-23T16:08:19.604Z,29.51
2022-08-23T16:10:47.623Z,29.77
2022-08-23T16:13:15.733Z,29.88
2022-08-23T16:15:43.982Z,29.91
2022-08-23T16:18:13.911Z,29.82
2022-08-23T16:20:42.053Z,29.79
2022-08-23T16:23:10.155Z,29.90
2022-08-23T16:25:38.542Z,29.86
2022-08-23T16:28:07.526Z,29.87
2022-08-23T16:30:35.532Z,29.78
2022-08-23T16:33:03.969Z,29.77
2022-08-23T16:35:33.548Z,29.34
2022-08-23T16:38:01.566Z,29.28
2022-08-23T16:40:29.594Z,29.47
2022-08-23T16:42:57.670Z,29.49
2022-08-23T16:45:26.248Z,29.71
2022-08-23T16:47:54.661Z,29.88
2022-08-23T16:50:22.955Z,30.01
2022-08-23T16:52:52.373Z,30.14
2022-08-23T16:55:20.831Z,30.13
2022-08-23T16:57:48.771Z,29.91
2022-08-23T17:00:17.392Z,29.75
2022-08-23T17:02:45.754Z,29.59
2022-08-23T17:05:16.708Z,29.59
2022-08-23T17:07:44.742Z,29.56
2022-08-23T17:10:15.866Z,29.57
2022-08-23T17:12:47.725Z,29.74
2022-08-23T17:15:20.312Z,29.61
2022-08-23T17:17:48.964Z,29.61
2022-08-23T17:20:18.189Z,29.38
2022-08-23T17:22:47.287Z,29.34
2022-08-23T17:25:18.120Z,29.42
2022-08-23T17:27:47.983Z,29.27
2022-08-23T17:30:19.062Z,29.03
2022-08-23T17:32:47.860Z,28.99
2022-08-23T17:35:17.247Z,29.08
2022-08-23T17:37:45.259Z,28.95
2022-08-23T17:40:17.550Z,28.93
2022-08-23T17:42:49.908Z,28.88
2022-08-23T17:45:18.891Z,28.87
2022-08-23T17:47:47.304Z,28.90
2022-08-23T17:50:16.715Z,28.69
2022-08-23T17:52:45.073Z,28.53
2022-08-23T17:55:18.423Z,28.35
2022-08-23T17:57:49.333Z,28.31
2022-08-23T18:00:20.093Z,28.33
2022-08-23T18:02:48.140Z,28.29
2022-08-23T18:05:16.247Z,28.16
2022-08-23T18:07:44.525Z,27.91
2022-08-23T18:10:13.348Z,27.73
2022-08-23T18:12:41.741Z,27.65
2022-08-23T18:15:12.494Z,27.50
2022-08-23T18:17:41.582Z,27.41
2022-08-23T18:20:11.916Z,27.27
2022-08-23T18:22:40.533Z,27.17
2022-08-23T18:25:10.335Z,27.07
2022-08-23T18:27:55.915Z,26.93
2022-08-23T18:30:25.422Z,26.79
2022-08-23T18:32:53.367Z,26.66
2022-08-23T18:35:21.914Z,26.57
2022-08-23T18:37:49.959Z,26.41
2022-08-23T18:40:18.020Z,26.38
2022-08-23T18:42:46.122Z,26.36
2022-08-23T18:45:15.034Z,26.23
2022-08-23T18:47:44.335Z,26.22
2022-08-23T18:50:13.480Z,26.15
2022-08-23T18:52:41.539Z,26.05
2022-08-23T18:55:10.275Z,25.95
2022-08-23T18:57:38.601Z,25.90
2022-08-23T19:00:10.268Z,25.73
2022-08-23T19:02:38.235Z,25.61
2022-08-23T19:05:08.881Z,25.56
2022-08-23T19:07:36.849Z,25.48
2022-08-23T19:10:05.888Z,25.37
2022-08-23T19:12:34.365Z,25.37
2022-08-23T19:15:02.404Z,25.37
2022-08-23T19:17:30.428Z,25.36
2022-08-23T19:19:59.977Z,25.37
2022-08-23T19:22:29.757Z,25.39
2022-08-23T19:24:57.697Z,25.32
2022-08-23T19:27:25.809Z,25.23
2022-08-23T19:29:53.819Z,25.29
2022-08-23T19:32:22.017Z,25.25
2022-08-23T19:34:50.577Z,25.16
2022-08-23T19:37:20.734Z,25.16
2022-08-23T19:39:52.702Z,25.19
2022-08-23T19:42:21.552Z,25.16
2022-08-23T19:44:49.745Z,25.11
2022-08-23T19:47:19.822Z,25.13
2022-08-23T19:49:49.491Z,25.11
2022-08-23T19:52:17.501Z,25.18
2022-08-23T19:54:45.564Z,25.10
2022-08-23T19:57:14.967Z,25.09
2022-08-23T19:59:43.013Z,25.10
2022-08-23T20:02:13.952Z,25.08
2022-08-23T20:04:42.116Z,25.08
2022-08-23T20:07:10.169Z,24.97
2022-08-23T20:09:38.415Z,24.94
2022-08-23T20:12:07.671Z,25.01
2022-08-23T20:14:36.976Z,24.94
2022-08-23T20:17:07.528Z,24.92
2022-08-23T20:19:36.304Z,24.91
2022-08-23T20:22:18.416Z,24.89
2022-08-23T20:24:52.106Z,24.90
2022-08-23T20:27:25.459Z,24.86
2022-08-23T20:30:01.504Z,24.86
2022-08-23T20:32:31.265Z,24.83
2022-08-23T20:34:59.299Z,24.77
2022-08-23T20:37:27.549Z,24.76
2022-08-23T20:39:55.695Z,24.62
2022-08-23T20:42:23.829Z,24.62
2022-08-23T20:44:52.148Z,24.61
2022-08-23T20:47:21.549Z,24.59
2022-08-23T20:49:49.561Z,24.52
2022-08-23T20:52:18.378Z,24.41
2022-08-23T20:54:46.943Z,24.48
2022-08-23T20:57:14.956Z,24.49
2022-08-23T20:59:45.018Z,24.44
2022-08-23T21:02:13.936Z,24.48
2022-08-23T21:04:43.434Z,24.49
2022-08-23T21:07:12.080Z,24.45
2022-08-23T21:09:40.028Z,24.46
2022-08-23T21:12:08.360Z,24.46
2022-08-23T21:14:36.468Z,24.47
2022-08-23T21:17:04.510Z,24.50
2022-08-23T21:19:32.448Z,24.52
2022-08-23T21:22:01.805Z,24.52
2022-08-23T21:24:29.937Z,24.48
2022-08-23T21:26:57.956Z,24.49
2022-08-23T21:29:25.952Z,24.48
2022-08-23T21:31:53.999Z,24.43
2022-08-23T21:34:21.973Z,24.26
2022-08-23T21:36:51.283Z,24.04
2022-08-23T21:39:21.071Z,23.80
2022-08-23T21:41:49.379Z,23.65
2022-08-23T21:44:21.435Z,23.55
2022-08-23T21:46:50.107Z,23.45
2022-08-23T21:49:20.881Z,23.37
2022-08-23T21:51:49.425Z,23.30
2022-08-23T21:54:18.749Z,23.32
2022-08-23T21:56:48.743Z,23.38
2022-08-23T21:59:18.633Z,23.36
2022-08-23T22:01:47.001Z,23.32
2022-08-23T22:04:16.647Z,23.27
2022-08-23T22:06:47.048Z,23.27
2022-08-23T22:09:18.781Z,23.26
2022-08-23T22:11:49.940Z,23.26
2022-08-23T22:14:21.407Z,23.15
2022-08-23T22:16:55.410Z,23.09
2022-08-23T22:19:23.698Z,23.11
2022-08-23T22:21:52.546Z,23.06
2022-08-23T22:24:25.554Z,23.07
2022-08-23T22:26:56.327Z,23.00
2022-08-23T22:29:24.815Z,22.92
2022-08-23T22:31:52.796Z,22.93
2022-08-23T22:34:21.153Z,22.95
2022-08-23T22:36:52.161Z,22.99
2022-08-23T22:39:20.770Z,22.96
2022-08-23T22:41:48.751Z,22.93
2022-08-23T22:44:18.598Z,22.95
2022-08-23T22:46:46.886Z,23.07
2022-08-23T22:49:14.985Z,23.12
2022-08-23T22:51:43.925Z,23.10
2022-08-23T22:54:14.348Z,23.09
2022-08-23T22:56:45.101Z,22.99
2022-08-23T22:59:14.333Z,22.96
2022-08-23T23:01:47.996Z,22.85
2022-08-23T23:04:19.125Z,22.71
2022-08-23T23:06:49.044Z,22.59
2022-08-23T23:09:17.554Z,22.54
2022-08-23T23:11:46.635Z,22.47
2022-08-23T23:14:15.740Z,22.43
2022-08-23T23:16:46.465Z,22.39
2022-08-23T23:19:31.993Z,22.32
2022-08-23T23:22:00.643Z,22.27
2022-08-23T23:24:30.883Z,22.25
2022-08-23T23:26:59.854Z,22.26
2022-08-23T23:29:28.779Z,22.27
2022-08-23T23:31:59.066Z,22.27
2022-08-23T23:34:28.003Z,22.18
2022-08-23T23:36:57.218Z,22.17
2022-08-23T23:39:25.789Z,22.18
2022-08-23T23:41:54.303Z,22.22
2022-08-23T23:44:29.911Z,22.28
2022-08-23T23:47:02.205Z,22.27
2022-08-23T23:49:32.562Z,22.25
2022-08-23T23:52:02.366Z,22.31
2022-08-23T23:54:30.447Z,22.16
2022-08-23T23:56:58.532Z,22.01
2022-08-23T23:59:27.056Z,21.79
